Terminal Aerodrome Forecast
Issued by NWS

Home | Current Version | Previous Version | Text Only | Print | Product List | Glossary On
Versions: 1 2 3 4 5 6 7 8 9 10 11 12 13 14 15 16 17
000
FTUS42 KFFC 280227 AAA
TAFRYY
TAF AMD
KRYY 280227Z 2802/2824 23009KT P6SM BKN050
     FM280300 25005KT P6SM VCSH SCT040 BKN150
      TEMPO 2807/2809 VRB20G30KT 4SM TSRA BKN030CB
     FM280900 25005KT P6SM VCSH BKN012
     FM281400 25008KT P6SM BKN025
     FM281600 25010G18KT P6SM BKN035
     FM282000 25010G20KT P6SM BKN050
      AMD NOT SKED 2804/2812=

USA.gov is the U.S. government's official web portal to all federal, state and local government web resources and services.